sensor_id;sensor_type;location;lat;lon;timestamp;pressure;altitude;pressure_sealevel;temperature;humidity
25130;BME280;13308;50.860;13.664;2022-12-07T07:06:34;96233.25;;;1.47;100.00
25130;BME280;13308;50.860;13.664;2022-12-07T07:08:59;96230.50;;;1.40;100.00
25130;BME280;13308;50.860;13.664;2022-12-07T07:11:24;96238.69;;;1.47;100.00
25130;BME280;13308;50.860;13.664;2022-12-07T07:13:50;96242.53;;;1.42;100.00
25130;BME280;13308;50.860;13.664;2022-12-07T07:16:15;96244.84;;;1.40;100.00
25130;BME280;13308;50.860;13.664;2022-12-07T07:18:40;96239.78;;;1.39;100.00
25130;BME280;13308;50.860;13.664;2022-12-07T07:21:06;96247.28;;;1.49;100.00
25130;BME280;13308;50.860;13.664;2022-12-07T07:23:31;96238.66;;;1.43;100.00
25130;BME280;13308;50.860;13.664;2022-12-07T07:25:56;96242.19;;;1.44;100.00
25130;BME280;13308;50.860;13.664;2022-12-07T07:28:22;96249.50;;;1.40;100.00
25130;BME280;13308;50.860;13.664;2022-12-07T07:30:47;96239.47;;;1.44;100.00
25130;BME280;13308;50.860;13.664;2022-12-07T07:33:13;96247.16;;;1.38;100.00
25130;BME280;13308;50.860;13.664;2022-12-07T07:35:38;96253.34;;;1.35;100.00
25130;BME280;13308;50.860;13.664;2022-12-07T07:38:04;96251.06;;;1.41;100.00
25130;BME280;13308;50.860;13.664;2022-12-07T07:40:30;96256.84;;;1.39;100.00
25130;BME280;13308;50.860;13.664;2022-12-07T07:42:56;96253.41;;;1.42;100.00
25130;BME280;13308;50.860;13.664;2022-12-07T07:45:24;96255.75;;;1.44;100.00
25130;BME280;13308;50.860;13.664;2022-12-07T07:47:49;96262.78;;;1.48;100.00
25130;BME280;13308;50.860;13.664;2022-12-07T07:50:15;96265.88;;;1.47;100.00
25130;BME280;13308;50.860;13.664;2022-12-07T07:52:41;96267.03;;;1.46;100.00
25130;BME280;13308;50.860;13.664;2022-12-07T07:55:07;96261.28;;;1.54;100.00
25130;BME280;13308;50.860;13.664;2022-12-07T07:57:37;96266.72;;;1.54;100.00
25130;BME280;13308;50.860;13.664;2022-12-07T08:00:06;96262.09;;;1.55;100.00
25130;BME280;13308;50.860;13.664;2022-12-07T08:02:37;96265.19;;;1.57;100.00
25130;BME280;13308;50.860;13.664;2022-12-07T08:05:03;96268.28;;;1.55;100.00
25130;BME280;13308;50.860;13.664;2022-12-07T08:07:29;96267.91;;;1.57;100.00
25130;BME280;13308;50.860;13.664;2022-12-07T08:09:54;96274.97;;;1.65;100.00
25130;BME280;13308;50.860;13.664;2022-12-07T08:12:19;96273.03;;;1.65;100.00
25130;BME280;13308;50.860;13.664;2022-12-07T08:14:45;96275.41;;;1.67;100.00
25130;BME280;13308;50.860;13.664;2022-12-07T08:17:10;96271.94;;;1.73;100.00
25130;BME280;13308;50.860;13.664;2022-12-07T08:19:36;96281.63;;;1.71;100.00
25130;BME280;13308;50.860;13.664;2022-12-07T08:22:02;96282.44;;;1.75;100.00
25130;BME280;13308;50.860;13.664;2022-12-07T08:24:27;96280.13;;;1.77;100.00
25130;BME280;13308;50.860;13.664;2022-12-07T08:26:52;96279.38;;;1.80;100.00
25130;BME280;13308;50.860;13.664;2022-12-07T08:29:18;96278.66;;;1.86;100.00
25130;BME280;13308;50.860;13.664;2022-12-07T08:31:43;96280.97;;;1.84;100.00
25130;BME280;13308;50.860;13.664;2022-12-07T08:34:12;96279.47;;;1.90;100.00
25130;BME280;13308;50.860;13.664;2022-12-07T08:36:38;96274.44;;;1.92;100.00
25130;BME280;13308;50.860;13.664;2022-12-07T08:39:04;96278.00;;;2.00;100.00
25130;BME280;13308;50.860;13.664;2022-12-07T08:41:29;96282.69;;;2.03;100.00
25130;BME280;13308;50.860;13.664;2022-12-07T08:43:55;96291.25;;;2.05;100.00
25130;BME280;13308;50.860;13.664;2022-12-07T08:46:47;96289.75;;;2.11;100.00
25130;BME280;13308;50.860;13.664;2022-12-07T08:49:33;96278.88;;;2.11;100.00
25130;BME280;13308;50.860;13.664;2022-12-07T08:51:59;96284.34;;;2.18;100.00
25130;BME280;13308;50.860;13.664;2022-12-07T08:54:24;96284.41;;;2.25;100.00
25130;BME280;13308;50.860;13.664;2022-12-07T08:56:50;96278.19;;;2.21;100.00
25130;BME280;13308;50.860;13.664;2022-12-07T08:59:17;96271.97;;;2.24;100.00
25130;BME280;13308;50.860;13.664;2022-12-07T09:01:44;96283.25;;;2.26;100.00
25130;BME280;13308;50.860;13.664;2022-12-07T09:04:10;96283.34;;;2.36;100.00
25130;BME280;13308;50.860;13.664;2022-12-07T09:06:36;96286.81;;;2.37;100.00
25130;BME280;13308;50.860;13.664;2022-12-07T09:09:02;96295.00;;;2.40;100.00
25130;BME280;13308;50.860;13.664;2022-12-07T09:11:28;96285.28;;;2.39;100.00
25130;BME280;13308;50.860;13.664;2022-12-07T09:13:54;96288.50;;;2.52;100.00
25130;BME280;13308;50.860;13.664;2022-12-07T09:16:19;96285.31;;;2.46;100.00
25130;BME280;13308;50.860;13.664;2022-12-07T09:18:44;96288.47;;;2.48;100.00
25130;BME280;13308;50.860;13.664;2022-12-07T09:21:10;96281.78;;;2.35;100.00
25130;BME280;13308;50.860;13.664;2022-12-07T09:23:35;96284.56;;;2.46;100.00
25130;BME280;13308;50.860;13.664;2022-12-07T09:26:02;96294.31;;;2.54;100.00
25130;BME280;13308;50.860;13.664;2022-12-07T09:28:28;96280.34;;;2.52;100.00
25130;BME280;13308;50.860;13.664;2022-12-07T09:30:53;96282.28;;;2.58;100.00
25130;BME280;13308;50.860;13.664;2022-12-07T09:33:19;96279.97;;;2.57;100.00
25130;BME280;13308;50.860;13.664;2022-12-07T09:35:48;96272.19;;;2.59;100.00
25130;BME280;13308;50.860;13.664;2022-12-07T09:38:14;96283.88;;;2.59;100.00
25130;BME280;13308;50.860;13.664;2022-12-07T09:40:40;96277.63;;;2.55;100.00
25130;BME280;13308;50.860;13.664;2022-12-07T09:43:13;96273.78;;;2.63;100.00
25130;BME280;13308;50.860;13.664;2022-12-07T09:45:40;96267.56;;;2.63;100.00
25130;BME280;13308;50.860;13.664;2022-12-07T09:48:17;96281.59;;;2.72;100.00
25130;BME280;13308;50.860;13.664;2022-12-07T09:50:43;96285.09;;;2.69;100.00
25130;BME280;13308;50.860;13.664;2022-12-07T09:53:27;96281.25;;;2.80;100.00
25130;BME280;13308;50.860;13.664;2022-12-07T09:55:54;96284.75;;;2.74;100.00
25130;BME280;13308;50.860;13.664;2022-12-07T09:58:27;96272.00;;;2.92;100.00
25130;BME280;13308;50.860;13.664;2022-12-07T10:00:55;96284.84;;;2.95;100.00
25130;BME280;13308;50.860;13.664;2022-12-07T10:03:22;96284.19;;;3.33;100.00
25130;BME280;13308;50.860;13.664;2022-12-07T10:05:49;96270.16;;;3.13;100.00
25130;BME280;13308;50.860;13.664;2022-12-07T10:08:15;96283.44;;;3.39;100.00
25130;BME280;13308;50.860;13.664;2022-12-07T10:10:43;96271.03;;;3.52;100.00
25130;BME280;13308;50.860;13.664;2022-12-07T10:13:14;96279.56;;;3.47;100.00
25130;BME280;13308;50.860;13.664;2022-12-07T10:18:33;96272.81;;;3.06;100.00
25130;BME280;13308;50.860;13.664;2022-12-07T10:23:39;96268.94;;;3.04;100.00
25130;BME280;13308;50.860;13.664;2022-12-07T10:28:58;96266.56;;;2.92;100.00
25130;BME280;13308;50.860;13.664;2022-12-07T10:31:24;96258.03;;;3.04;100.00
25130;BME280;13308;50.860;13.664;2022-12-07T10:33:58;96259.19;;;3.03;100.00
25130;BME280;13308;50.860;13.664;2022-12-07T10:39:01;96268.63;;;3.23;100.00
25130;BME280;13308;50.860;13.664;2022-12-07T10:41:28;96254.59;;;3.21;100.00
25130;BME280;13308;50.860;13.664;2022-12-07T10:43:56;96260.09;;;3.42;100.00
25130;BME280;13308;50.860;13.664;2022-12-07T10:46:40;96262.44;;;3.43;100.00
25130;BME280;13308;50.860;13.664;2022-12-07T10:54:12;96262.38;;;3.19;100.00
25130;BME280;13308;50.860;13.664;2022-12-07T10:56:46;96260.00;;;3.14;100.00
25130;BME280;13308;50.860;13.664;2022-12-07T11:02:02;96250.69;;;3.18;100.00
25130;BME280;13308;50.860;13.664;2022-12-07T11:04:43;96250.28;;;3.13;100.00
25130;BME280;13308;50.860;13.664;2022-12-07T11:18:36;96248.34;;;3.10;100.00
25130;BME280;13308;50.860;13.664;2022-12-07T11:26:29;96234.72;;;3.10;100.00
25130;BME280;13308;50.860;13.664;2022-12-07T11:37:02;96224.94;;;3.02;100.00
25130;BME280;13308;50.860;13.664;2022-12-07T11:42:01;96222.53;;;2.76;100.00
25130;BME280;13308;50.860;13.664;2022-12-07T11:47:10;96210.84;;;2.79;100.00
25130;BME280;13308;50.860;13.664;2022-12-07T11:49:54;96214.75;;;2.78;100.00
25130;BME280;13308;50.860;13.664;2022-12-07T11:52:27;96220.56;;;2.76;100.00
25130;BME280;13308;50.860;13.664;2022-12-07T11:54:57;96218.63;;;2.77;100.00
25130;BME280;13308;50.860;13.664;2022-12-07T11:57:32;96214.75;;;2.78;100.00
25130;BME280;13308;50.860;13.664;2022-12-07T12:00:03;96213.97;;;2.77;100.00
25130;BME280;13308;50.860;13.664;2022-12-07T12:02:36;96215.53;;;2.78;100.00
25130;BME280;13308;50.860;13.664;2022-12-07T12:07:39;96212.47;;;2.87;100.00
25130;BME280;13308;50.860;13.664;2022-12-07T12:10:35;96204.31;;;2.90;100.00
25130;BME280;13308;50.860;13.664;2022-12-07T12:13:18;96201.19;;;2.92;100.00
25130;BME280;13308;50.860;13.664;2022-12-07T12:21:10;96193.06;;;3.06;100.00
25130;BME280;13308;50.860;13.664;2022-12-07T12:23:50;96195.78;;;3.09;100.00
25130;BME280;13308;50.860;13.664;2022-12-07T12:26:28;96195.41;;;3.04;100.00
25130;BME280;13308;50.860;13.664;2022-12-07T12:29:02;96187.63;;;3.06;100.00
25130;BME280;13308;50.860;13.664;2022-12-07T12:31:35;96187.22;;;3.04;100.00
25130;BME280;13308;50.860;13.664;2022-12-07T12:34:04;96198.91;;;3.08;100.00
25130;BME280;13308;50.860;13.664;2022-12-07T12:39:15;96182.88;;;2.78;100.00
25130;BME280;13308;50.860;13.664;2022-12-07T12:47:03;96178.50;;;2.56;100.00
25130;BME280;13308;50.860;13.664;2022-12-07T12:49:40;96178.09;;;2.51;100.00
25130;BME280;13308;50.860;13.664;2022-12-07T12:54:59;96174.50;;;2.33;100.00
25130;BME280;13308;50.860;13.664;2022-12-07T12:57:30;96172.53;;;2.30;100.00
25130;BME280;13308;50.860;13.664;2022-12-07T13:00:14;96172.19;;;2.38;100.00
25130;BME280;13308;50.860;13.664;2022-12-07T13:02:54;96172.59;;;2.44;100.00
25130;BME280;13308;50.860;13.664;2022-12-07T13:05:22;96172.19;;;2.42;100.00
25130;BME280;13308;50.860;13.664;2022-12-07T13:08:01;96176.47;;;2.43;100.00
25130;BME280;13308;50.860;13.664;2022-12-07T13:13:29;96171.06;;;2.50;100.00
25130;BME280;13308;50.860;13.664;2022-12-07T13:18:41;96167.25;;;2.65;100.00
25130;BME280;13308;50.860;13.664;2022-12-07T13:29:16;96171.06;;;2.50;100.00
25130;BME280;13308;50.860;13.664;2022-12-07T13:31:46;96170.25;;;2.39;100.00
25130;BME280;13308;50.860;13.664;2022-12-07T13:36:57;96167.47;;;2.28;100.00
25130;BME280;13308;50.860;13.664;2022-12-07T13:39:24;96164.72;;;2.21;100.00
25130;BME280;13308;50.860;13.664;2022-12-07T13:41:52;96162.34;;;2.20;100.00
25130;BME280;13308;50.860;13.664;2022-12-07T13:44:18;96173.25;;;2.20;100.00
25130;BME280;13308;50.860;13.664;2022-12-07T13:49:23;96169.28;;;2.07;100.00
25130;BME280;13308;50.860;13.664;2022-12-07T13:51:49;96192.19;;;2.06;100.00
25130;BME280;13308;50.860;13.664;2022-12-07T13:54:15;96173.81;;;1.89;100.00
25130;BME280;13308;50.860;13.664;2022-12-07T13:56:41;96181.66;;;1.97;100.00
25130;BME280;13308;50.860;13.664;2022-12-07T13:59:16;96179.31;;;1.96;100.00
25130;BME280;13308;50.860;13.664;2022-12-07T14:01:44;96186.25;;;1.90;100.00
25130;BME280;13308;50.860;13.664;2022-12-07T14:04:20;96183.19;;;1.95;100.00
25130;BME280;13308;50.860;13.664;2022-12-07T14:06:52;96185.94;;;2.02;100.00
25130;BME280;13308;50.860;13.664;2022-12-07T14:09:20;96184.81;;;2.03;100.00
25130;BME280;13308;50.860;13.664;2022-12-07T14:11:48;96184.09;;;2.13;100.00
25130;BME280;13308;50.860;13.664;2022-12-07T14:14:18;96184.13;;;2.20;100.00
25130;BME280;13308;50.860;13.664;2022-12-07T14:16:56;96177.13;;;2.22;100.00
25130;BME280;13308;50.860;13.664;2022-12-07T14:24:49;96177.13;;;2.19;100.00
25130;BME280;13308;50.860;13.664;2022-12-07T14:27:22;96167.06;;;2.26;100.00
25130;BME280;13308;50.860;13.664;2022-12-07T14:29:48;96163.97;;;2.28;100.00
25130;BME280;13308;50.860;13.664;2022-12-07T14:32:23;96161.25;;;2.24;100.00
25130;BME280;13308;50.860;13.664;2022-12-07T14:35:08;96167.81;;;2.20;100.00
25130;BME280;13308;50.860;13.664;2022-12-07T14:37:36;96163.53;;;2.19;100.00
25130;BME280;13308;50.860;13.664;2022-12-07T14:40:02;96169.38;;;2.21;100.00
25130;BME280;13308;50.860;13.664;2022-12-07T14:42:29;96173.25;;;2.20;100.00
25130;BME280;13308;50.860;13.664;2022-12-07T14:44:56;96164.72;;;2.25;100.00
25130;BME280;13308;50.860;13.664;2022-12-07T14:47:23;96162.00;;;2.25;100.00
25130;BME280;13308;50.860;13.664;2022-12-07T14:49:48;96169.78;;;2.23;100.00
25130;BME280;13308;50.860;13.664;2022-12-07T14:52:17;96170.56;;;2.23;100.00
25130;BME280;13308;50.860;13.664;2022-12-07T14:54:43;96168.66;;;2.31;100.00
25130;BME280;13308;50.860;13.664;2022-12-07T14:57:09;96170.16;;;2.25;100.00
25130;BME280;13308;50.860;13.664;2022-12-07T14:59:35;96171.31;;;2.24;100.00
25130;BME280;13308;50.860;13.664;2022-12-07T15:02:01;96159.38;;;2.39;100.00
25130;BME280;13308;50.860;13.664;2022-12-07T15:04:26;96157.00;;;2.30;100.00
25130;BME280;13308;50.860;13.664;2022-12-07T15:07:00;96169.03;;;2.29;100.00
25130;BME280;13308;50.860;13.664;2022-12-07T15:09:26;96163.97;;;2.28;100.00
25130;BME280;13308;50.860;13.664;2022-12-07T15:11:51;96167.06;;;2.26;100.00
25130;BME280;13308;50.860;13.664;2022-12-07T15:14:17;96172.50;;;2.23;100.00
25130;BME280;13308;50.860;13.664;2022-12-07T15:16:42;96163.16;;;2.24;100.00
25130;BME280;13308;50.860;13.664;2022-12-07T15:19:24;96170.13;;;2.18;100.00
25130;BME280;13308;50.860;13.664;2022-12-07T15:21:53;96172.09;;;2.21;100.00
25130;BME280;13308;50.860;13.664;2022-12-07T15:24:19;96166.69;;;2.28;100.00
25130;BME280;13308;50.860;13.664;2022-12-07T15:26:44;96170.44;;;2.06;100.00
25130;BME280;13308;50.860;13.664;2022-12-07T15:29:10;96172.75;;;2.00;100.00
25130;BME280;13308;50.860;13.664;2022-12-07T15:31:36;96170.31;;;1.85;100.00
25130;BME280;13308;50.860;13.664;2022-12-07T15:34:02;96164.47;;;1.83;100.00
25130;BME280;13308;50.860;13.664;2022-12-07T15:36:30;96159.75;;;1.73;100.00
25130;BME280;13308;50.860;13.664;2022-12-07T15:38:56;96167.09;;;1.69;100.00
25130;BME280;13308;50.860;13.664;2022-12-07T15:41:22;96165.94;;;1.70;100.00
25130;BME280;13308;50.860;13.664;2022-12-07T15:43:47;96163.38;;;1.91;100.00
25130;BME280;13308;50.860;13.664;2022-12-07T15:46:36;96164.81;;;1.78;100.00
25130;BME280;13308;50.860;13.664;2022-12-07T15:49:03;96163.28;;;1.80;100.00
25130;BME280;13308;50.860;13.664;2022-12-07T15:51:28;96159.88;;;1.94;100.00
25130;BME280;13308;50.860;13.664;2022-12-07T15:53:54;96167.66;;;1.92;100.00
25130;BME280;13308;50.860;13.664;2022-12-07T15:56:20;96166.13;;;1.98;100.00
25130;BME280;13308;50.860;13.664;2022-12-07T15:58:46;96165.31;;;1.94;100.00
25130;BME280;13308;50.860;13.664;2022-12-07T16:01:13;96170.03;;;2.00;100.00
25130;BME280;13308;50.860;13.664;2022-12-07T16:03:38;96174.69;;;2.00;100.00
25130;BME280;13308;50.860;13.664;2022-12-07T16:06:04;96171.16;;;1.96;100.00
25130;BME280;13308;50.860;13.664;2022-12-07T16:08:30;96170.00;;;1.93;100.00
25130;BME280;13308;50.860;13.664;2022-12-07T16:10:55;96161.38;;;1.84;100.00
25130;BME280;13308;50.860;13.664;2022-12-07T16:13:20;96172.22;;;1.81;100.00
25130;BME280;13308;50.860;13.664;2022-12-07T16:15:46;96172.16;;;1.70;100.00
25130;BME280;13308;50.860;13.664;2022-12-07T16:18:11;96162.88;;;1.75;100.00
25130;BME280;13308;50.860;13.664;2022-12-07T16:20:37;96170.31;;;1.85;100.00
25130;BME280;13308;50.860;13.664;2022-12-07T16:23:02;96170.34;;;1.88;100.00
25130;BME280;13308;50.860;13.664;2022-12-07T16:25:28;96159.03;;;1.83;100.00
25130;BME280;13308;50.860;13.664;2022-12-07T16:27:53;96162.94;;;1.89;100.00
25130;BME280;13308;50.860;13.664;2022-12-07T16:30:19;96162.16;;;1.85;100.00
25130;BME280;13308;50.860;13.664;2022-12-07T16:32:44;96162.16;;;1.85;100.00
25130;BME280;13308;50.860;13.664;2022-12-07T16:35:11;96166.09;;;1.91;100.00
25130;BME280;13308;50.860;13.664;2022-12-07T16:37:37;96168.81;;;1.91;100.00
25130;BME280;13308;50.860;13.664;2022-12-07T16:40:03;96172.25;;;1.84;100.00
25130;BME280;13308;50.860;13.664;2022-12-07T16:42:32;96171.44;;;1.84;100.00
25130;BME280;13308;50.860;13.664;2022-12-07T16:44:58;96168.38;;;1.85;100.00
25130;BME280;13308;50.860;13.664;2022-12-07T16:47:24;96174.63;;;1.89;100.00
25130;BME280;13308;50.860;13.664;2022-12-07T16:49:49;96171.16;;;1.96;100.00
25130;BME280;13308;50.860;13.664;2022-12-07T16:52:14;96172.28;;;1.91;100.00
25130;BME280;13308;50.860;13.664;2022-12-07T16:54:40;96177.75;;;1.95;100.00
25130;BME280;13308;50.860;13.664;2022-12-07T16:57:05;96178.09;;;1.90;100.00
25130;BME280;13308;50.860;13.664;2022-12-07T16:59:30;96173.88;;;1.96;100.00
25130;BME280;13308;50.860;13.664;2022-12-07T17:01:56;96187.06;;;1.94;100.00
25130;BME280;13308;50.860;13.664;2022-12-07T17:04:21;96182.84;;;2.00;100.00
25130;BME280;13308;50.860;13.664;2022-12-07T17:06:47;96181.69;;;2.04;100.00
25130;BME280;13308;50.860;13.664;2022-12-07T17:09:12;96184.38;;;2.01;100.00
25130;BME280;13308;50.860;13.664;2022-12-07T17:11:37;96183.66;;;2.04;100.00
25130;BME280;13308;50.860;13.664;2022-12-07T17:14:03;96177.75;;;1.95;100.00
25130;BME280;13308;50.860;13.664;2022-12-07T17:16:47;96184.72;;;1.92;100.00
25130;BME280;13308;50.860;13.664;2022-12-07T17:19:15;96188.63;;;1.95;100.00
25130;BME280;13308;50.860;13.664;2022-12-07T17:21:42;96190.97;;;1.96;100.00
25130;BME280;13308;50.860;13.664;2022-12-07T17:24:09;96191.34;;;1.95;100.00
25130;BME280;13308;50.860;13.664;2022-12-07T17:26:36;96192.50;;;1.94;100.00
25130;BME280;13308;50.860;13.664;2022-12-07T17:29:03;96196.38;;;1.93;100.00
25130;BME280;13308;50.860;13.664;2022-12-07T17:31:29;96190.16;;;1.92;100.00
25130;BME280;13308;50.860;13.664;2022-12-07T17:33:54;96192.84;;;1.89;100.00
25130;BME280;13308;50.860;13.664;2022-12-07T17:36:23;96190.94;;;1.89;100.00
25130;BME280;13308;50.860;13.664;2022-12-07T17:38:50;96190.09;;;1.82;100.00
25130;BME280;13308;50.860;13.664;2022-12-07T17:41:26;96190.91;;;1.86;100.00
25130;BME280;13308;50.860;13.664;2022-12-07T17:44:16;96178.06;;;1.83;100.00
25130;BME280;13308;50.860;13.664;2022-12-07T17:46:42;96185.81;;;1.81;100.00
25130;BME280;13308;50.860;13.664;2022-12-07T17:49:07;96184.66;;;1.82;100.00
25130;BME280;13308;50.860;13.664;2022-12-07T17:51:33;96188.13;;;1.79;100.00
25130;BME280;13308;50.860;13.664;2022-12-07T17:54:18;96188.53;;;1.81;100.00
25130;BME280;13308;50.860;13.664;2022-12-07T17:56:44;96184.28;;;1.83;100.00
25130;BME280;13308;50.860;13.664;2022-12-07T17:59:09;96179.19;;;1.78;100.00
25130;BME280;13308;50.860;13.664;2022-12-07T18:01:35;96193.50;;;1.72;100.00
25130;BME280;13308;50.860;13.664;2022-12-07T18:04:01;96191.19;;;1.74;100.00
25130;BME280;13308;50.860;13.664;2022-12-07T18:06:26;96185.78;;;1.77;100.00
25130;BME280;13308;50.860;13.664;2022-12-07T18:08:52;96183.50;;;1.83;100.00
25130;BME280;13308;50.860;13.664;2022-12-07T18:11:17;96182.28;;;1.77;100.00
25130;BME280;13308;50.860;13.664;2022-12-07T18:13:43;96184.97;;;1.73;100.00
25130;BME280;13308;50.860;13.664;2022-12-07T18:16:14;96190.78;;;1.72;100.00
25130;BME280;13308;50.860;13.664;2022-12-07T18:18:41;96188.84;;;1.72;100.00
25130;BME280;13308;50.860;13.664;2022-12-07T18:21:09;96185.03;;;1.80;100.00
25130;BME280;13308;50.860;13.664;2022-12-07T18:23:38;96182.31;;;1.80;100.00
25130;BME280;13308;50.860;13.664;2022-12-07T18:26:04;96193.97;;;1.81;100.00
25130;BME280;13308;50.860;13.664;2022-12-07T18:28:29;96194.78;;;1.85;100.00
25130;BME280;13308;50.860;13.664;2022-12-07T18:30:55;96193.19;;;1.84;100.00
25130;BME280;13308;50.860;13.664;2022-12-07T18:33:21;96191.66;;;1.83;100.00
25130;BME280;13308;50.860;13.664;2022-12-07T18:35:47;96189.09;;;2.04;100.00
25130;BME280;13308;50.860;13.664;2022-12-07T18:38:16;96197.56;;;1.92;100.00
25130;BME280;13308;50.860;13.664;2022-12-07T18:40:43;96196.03;;;1.94;100.00
25130;BME280;13308;50.860;13.664;2022-12-07T18:43:11;96191.34;;;1.95;100.00
25130;BME280;13308;50.860;13.664;2022-12-07T18:45:39;96208.06;;;1.97;100.00
25130;BME280;13308;50.860;13.664;2022-12-07T18:48:05;96194.09;;;2.02;100.00
25130;BME280;13308;50.860;13.664;2022-12-07T18:50:31;96194.47;;;1.97;100.00
25130;BME280;13308;50.860;13.664;2022-12-07T18:52:57;96201.88;;;2.00;100.00
25130;BME280;13308;50.860;13.664;2022-12-07T18:55:24;96196.81;;;1.98;100.00
25130;BME280;13308;50.860;13.664;2022-12-07T18:57:51;96194.06;;;1.95;100.00
25130;BME280;13308;50.860;13.664;2022-12-07T19:00:16;96195.63;;;1.96;100.00
25130;BME280;13308;50.860;13.664;2022-12-07T19:02:42;96194.06;;;1.95;100.00
25130;BME280;13308;50.860;13.664;2022-12-07T19:05:40;96201.81;;;1.93;100.00
25130;BME280;13308;50.860;13.664;2022-12-07T19:08:05;96194.88;;;1.99;100.00
25130;BME280;13308;50.860;13.664;2022-12-07T19:10:31;96194.09;;;2.02;100.00
